Terminal Aerodrome Forecast
Issued by NWS Sterling, VA

Current Version | Previous Version | Text Only | Print | Product List | Glossary Off
Versions: 1 2 3 4 5 6 7 8 9 10 11 12 13 14 15 16 17 18 19 20 21 22 23 24

000
FTUS41 KLWX 162341
TAFIAD
TAF
KIAD 162341Z 1700/1806 15011G17KT P6SM -RA FEW045 OVC100
     FM170900 18007KT P6SM SCT025 OVC030
     FM171000 18007KT P6SM SCT025 OVC040
     FM171700 24006KT P6SM BKN040
     FM172100 30009KT P6SM BKN040
     FM180100 34007KT P6SM SCT040=

USA.gov is the U.S. government's official web portal to all federal, state and local government web resources and services.